sensor_id;sensor_type;location;lat;lon;timestamp;temperature;humidity
19924;DHT22;10124;53.068;18.224;2023-05-07T00:00:29;3.80;99.90
19924;DHT22;10124;53.068;18.224;2023-05-07T00:03:16;3.80;99.90
19924;DHT22;10124;53.068;18.224;2023-05-07T00:05:44;3.70;99.90
19924;DHT22;10124;53.068;18.224;2023-05-07T00:08:11;3.70;99.90
19924;DHT22;10124;53.068;18.224;2023-05-07T00:10:39;3.80;99.90
19924;DHT22;10124;53.068;18.224;2023-05-07T00:13:06;3.60;99.90
19924;DHT22;10124;53.068;18.224;2023-05-07T00:15:33;3.50;99.90
19924;DHT22;10124;53.068;18.224;2023-05-07T00:18:01;3.50;99.90
19924;DHT22;10124;53.068;18.224;2023-05-07T00:20:28;3.40;99.90
19924;DHT22;10124;53.068;18.224;2023-05-07T00:22:56;3.40;99.90
19924;DHT22;10124;53.068;18.224;2023-05-07T00:25:23;3.30;99.90
19924;DHT22;10124;53.068;18.224;2023-05-07T00:27:50;3.40;99.90
19924;DHT22;10124;53.068;18.224;2023-05-07T00:30:17;3.30;99.90
19924;DHT22;10124;53.068;18.224;2023-05-07T00:32:45;3.30;99.90
19924;DHT22;10124;53.068;18.224;2023-05-07T00:35:12;4.90;99.90
19924;DHT22;10124;53.068;18.224;2023-05-07T00:37:40;3.10;99.90
19924;DHT22;10124;53.068;18.224;2023-05-07T00:40:07;3.00;99.90
19924;DHT22;10124;53.068;18.224;2023-05-07T00:42:36;3.10;99.90
19924;DHT22;10124;53.068;18.224;2023-05-07T00:45:03;3.00;99.90
19924;DHT22;10124;53.068;18.224;2023-05-07T00:47:31;2.90;99.90
19924;DHT22;10124;53.068;18.224;2023-05-07T00:49:58;4.10;99.90
19924;DHT22;10124;53.068;18.224;2023-05-07T00:52:26;2.80;99.90
19924;DHT22;10124;53.068;18.224;2023-05-07T00:54:54;2.80;99.90
19924;DHT22;10124;53.068;18.224;2023-05-07T00:57:24;3.70;99.90
19924;DHT22;10124;53.068;18.224;2023-05-07T00:59:52;2.80;99.90
19924;DHT22;10124;53.068;18.224;2023-05-07T01:02:19;2.80;99.90
19924;DHT22;10124;53.068;18.224;2023-05-07T01:04:47;2.70;99.90
19924;DHT22;10124;53.068;18.224;2023-05-07T01:07:15;2.60;99.90
19924;DHT22;10124;53.068;18.224;2023-05-07T01:09:42;3.50;99.90
19924;DHT22;10124;53.068;18.224;2023-05-07T01:12:10;2.60;99.90
19924;DHT22;10124;53.068;18.224;2023-05-07T01:14:37;2.50;99.90
19924;DHT22;10124;53.068;18.224;2023-05-07T01:17:05;2.50;99.90
19924;DHT22;10124;53.068;18.224;2023-05-07T01:19:33;2.50;99.90
19924;DHT22;10124;53.068;18.224;2023-05-07T01:22:07;2.40;99.90
19924;DHT22;10124;53.068;18.224;2023-05-07T01:24:45;3.80;99.90
19924;DHT22;10124;53.068;18.224;2023-05-07T01:27:14;2.40;99.90
19924;DHT22;10124;53.068;18.224;2023-05-07T01:32:10;2.20;99.90
19924;DHT22;10124;53.068;18.224;2023-05-07T01:34:38;2.60;99.90
19924;DHT22;10124;53.068;18.224;2023-05-07T01:44:29;2.00;99.90
19924;DHT22;10124;53.068;18.224;2023-05-07T01:54:25;1.90;99.90
19924;DHT22;10124;53.068;18.224;2023-05-07T01:56:56;1.80;99.90
19924;DHT22;10124;53.068;18.224;2023-05-07T02:11:47;1.80;99.90
19924;DHT22;10124;53.068;18.224;2023-05-07T02:31:32;1.20;99.90
19924;DHT22;10124;53.068;18.224;2023-05-07T02:34:01;1.70;99.90
19924;DHT22;10124;53.068;18.224;2023-05-07T02:36:28;1.70;99.90
19924;DHT22;10124;53.068;18.224;2023-05-07T03:01:31;1.10;99.90
19924;DHT22;10124;53.068;18.224;2023-05-07T03:06:32;1.30;99.90
19924;DHT22;10124;53.068;18.224;2023-05-07T03:08:59;1.30;99.90
19924;DHT22;10124;53.068;18.224;2023-05-07T03:11:27;1.20;99.90
19924;DHT22;10124;53.068;18.224;2023-05-07T03:13:54;1.30;99.90
19924;DHT22;10124;53.068;18.224;2023-05-07T03:16:22;1.10;99.90
19924;DHT22;10124;53.068;18.224;2023-05-07T03:18:49;1.10;99.90
19924;DHT22;10124;53.068;18.224;2023-05-07T03:21:17;1.10;99.90
19924;DHT22;10124;53.068;18.224;2023-05-07T03:23:44;1.10;99.90
19924;DHT22;10124;53.068;18.224;2023-05-07T03:26:11;1.30;99.90
19924;DHT22;10124;53.068;18.224;2023-05-07T03:28:38;1.10;99.90
19924;DHT22;10124;53.068;18.224;2023-05-07T03:31:10;1.20;99.90
19924;DHT22;10124;53.068;18.224;2023-05-07T03:33:56;1.10;99.90
19924;DHT22;10124;53.068;18.224;2023-05-07T03:36:24;1.10;99.90
19924;DHT22;10124;53.068;18.224;2023-05-07T03:38:54;1.20;99.90
19924;DHT22;10124;53.068;18.224;2023-05-07T03:41:25;1.20;99.90
19924;DHT22;10124;53.068;18.224;2023-05-07T03:43:53;1.30;99.90
19924;DHT22;10124;53.068;18.224;2023-05-07T03:46:21;1.30;99.90
19924;DHT22;10124;53.068;18.224;2023-05-07T03:48:48;1.40;99.90
19924;DHT22;10124;53.068;18.224;2023-05-07T03:51:16;1.40;99.90
19924;DHT22;10124;53.068;18.224;2023-05-07T03:53:44;1.40;99.90
19924;DHT22;10124;53.068;18.224;2023-05-07T03:56:11;1.70;99.90
19924;DHT22;10124;53.068;18.224;2023-05-07T03:58:40;1.30;99.90
19924;DHT22;10124;53.068;18.224;2023-05-07T04:01:10;1.40;99.90
19924;DHT22;10124;53.068;18.224;2023-05-07T04:03:38;1.60;99.90
19924;DHT22;10124;53.068;18.224;2023-05-07T04:06:05;1.50;99.90
19924;DHT22;10124;53.068;18.224;2023-05-07T04:11:04;1.50;99.90
19924;DHT22;10124;53.068;18.224;2023-05-07T04:16:03;1.60;99.90
19924;DHT22;10124;53.068;18.224;2023-05-07T04:18:33;1.60;99.90
19924;DHT22;10124;53.068;18.224;2023-05-07T04:28:36;1.80;99.90
19924;DHT22;10124;53.068;18.224;2023-05-07T04:33:35;1.70;99.90
19924;DHT22;10124;53.068;18.224;2023-05-07T04:36:04;1.80;99.90
19924;DHT22;10124;53.068;18.224;2023-05-07T04:38:36;1.80;99.90
19924;DHT22;10124;53.068;18.224;2023-05-07T04:41:05;1.90;99.90
19924;DHT22;10124;53.068;18.224;2023-05-07T04:43:37;1.90;99.90
19924;DHT22;10124;53.068;18.224;2023-05-07T04:46:05;2.00;99.90
19924;DHT22;10124;53.068;18.224;2023-05-07T04:48:32;2.30;99.90
19924;DHT22;10124;53.068;18.224;2023-05-07T04:51:01;2.20;99.90
19924;DHT22;10124;53.068;18.224;2023-05-07T04:53:28;2.30;99.90
19924;DHT22;10124;53.068;18.224;2023-05-07T04:55:57;2.40;99.90
19924;DHT22;10124;53.068;18.224;2023-05-07T04:58:30;2.60;99.90
19924;DHT22;10124;53.068;18.224;2023-05-07T05:01:00;3.20;99.90
19924;DHT22;10124;53.068;18.224;2023-05-07T05:03:28;2.70;99.90
19924;DHT22;10124;53.068;18.224;2023-05-07T05:05:56;2.70;99.90
19924;DHT22;10124;53.068;18.224;2023-05-07T05:08:30;3.00;99.90
19924;DHT22;10124;53.068;18.224;2023-05-07T05:11:01;3.10;99.90
19924;DHT22;10124;53.068;18.224;2023-05-07T05:15:59;3.30;99.90
19924;DHT22;10124;53.068;18.224;2023-05-07T05:18:29;4.10;99.90
19924;DHT22;10124;53.068;18.224;2023-05-07T05:20:56;3.80;99.90
19924;DHT22;10124;53.068;18.224;2023-05-07T05:23:24;4.00;99.90
19924;DHT22;10124;53.068;18.224;2023-05-07T05:25:56;4.40;99.90
19924;DHT22;10124;53.068;18.224;2023-05-07T05:28:26;4.30;99.90
19924;DHT22;10124;53.068;18.224;2023-05-07T05:33:23;4.60;99.90
19924;DHT22;10124;53.068;18.224;2023-05-07T05:35:51;6.10;99.90
19924;DHT22;10124;53.068;18.224;2023-05-07T05:38:18;6.80;99.90
19924;DHT22;10124;53.068;18.224;2023-05-07T05:40:46;5.30;99.90
19924;DHT22;10124;53.068;18.224;2023-05-07T05:43:14;5.50;99.90
19924;DHT22;10124;53.068;18.224;2023-05-07T05:45:42;6.90;99.90
19924;DHT22;10124;53.068;18.224;2023-05-07T05:48:09;8.60;99.90
19924;DHT22;10124;53.068;18.224;2023-05-07T05:50:38;6.10;99.90
19924;DHT22;10124;53.068;18.224;2023-05-07T05:53:06;6.30;99.90
19924;DHT22;10124;53.068;18.224;2023-05-07T05:55:34;6.70;99.90
19924;DHT22;10124;53.068;18.224;2023-05-07T05:58:01;7.00;99.90
19924;DHT22;10124;53.068;18.224;2023-05-07T06:00:31;7.10;99.90
19924;DHT22;10124;53.068;18.224;2023-05-07T06:03:02;7.20;99.90
19924;DHT22;10124;53.068;18.224;2023-05-07T06:05:30;7.40;99.90
19924;DHT22;10124;53.068;18.224;2023-05-07T06:07:58;7.60;99.90
19924;DHT22;10124;53.068;18.224;2023-05-07T06:10:30;7.80;99.90
19924;DHT22;10124;53.068;18.224;2023-05-07T06:15:26;8.30;99.90
19924;DHT22;10124;53.068;18.224;2023-05-07T06:17:53;8.60;99.90
19924;DHT22;10124;53.068;18.224;2023-05-07T06:25:19;8.90;76.40
19924;DHT22;10124;53.068;18.224;2023-05-07T06:27:47;9.10;1.00
19924;DHT22;10124;53.068;18.224;2023-05-07T06:32:43;9.70;99.90
19924;DHT22;10124;53.068;18.224;2023-05-07T06:35:12;9.80;99.90
19924;DHT22;10124;53.068;18.224;2023-05-07T06:37:41;10.50;99.90
19924;DHT22;10124;53.068;18.224;2023-05-07T06:40:15;11.00;99.90
19924;DHT22;10124;53.068;18.224;2023-05-07T06:42:44;12.00;99.90
19924;DHT22;10124;53.068;18.224;2023-05-07T06:45:34;12.60;99.90
19924;DHT22;10124;53.068;18.224;2023-05-07T06:48:03;13.70;72.70
19924;DHT22;10124;53.068;18.224;2023-05-07T06:50:35;13.70;8.60
19924;DHT22;10124;53.068;18.224;2023-05-07T06:53:03;13.90;4.90
19924;DHT22;10124;53.068;18.224;2023-05-07T06:55:32;14.40;1.00
19924;DHT22;10124;53.068;18.224;2023-05-07T06:58:00;14.30;1.00
19924;DHT22;10124;53.068;18.224;2023-05-07T07:00:29;14.20;1.00
19924;DHT22;10124;53.068;18.224;2023-05-07T07:02:57;14.90;1.00
19924;DHT22;10124;53.068;18.224;2023-05-07T07:05:28;14.90;1.00
19924;DHT22;10124;53.068;18.224;2023-05-07T07:07:57;15.10;1.00
19924;DHT22;10124;53.068;18.224;2023-05-07T07:10:26;15.40;1.00
19924;DHT22;10124;53.068;18.224;2023-05-07T07:12:55;15.70;1.00
19924;DHT22;10124;53.068;18.224;2023-05-07T07:15:23;15.50;1.00
19924;DHT22;10124;53.068;18.224;2023-05-07T07:17:53;15.10;1.00
19924;DHT22;10124;53.068;18.224;2023-05-07T07:20:23;15.10;1.00
19924;DHT22;10124;53.068;18.224;2023-05-07T07:22:50;14.70;1.00
19924;DHT22;10124;53.068;18.224;2023-05-07T07:25:18;14.00;1.00
19924;DHT22;10124;53.068;18.224;2023-05-07T07:27:47;14.30;1.00
19924;DHT22;10124;53.068;18.224;2023-05-07T07:30:15;15.20;1.00
19924;DHT22;10124;53.068;18.224;2023-05-07T07:32:46;16.40;1.00
19924;DHT22;10124;53.068;18.224;2023-05-07T07:35:14;16.50;1.00
19924;DHT22;10124;53.068;18.224;2023-05-07T07:37:43;17.40;1.00
19924;DHT22;10124;53.068;18.224;2023-05-07T07:40:13;17.30;1.00
19924;DHT22;10124;53.068;18.224;2023-05-07T07:42:41;17.40;1.00
19924;DHT22;10124;53.068;18.224;2023-05-07T07:45:08;17.80;1.00
19924;DHT22;10124;53.068;18.224;2023-05-07T07:47:40;18.50;1.00
19924;DHT22;10124;53.068;18.224;2023-05-07T07:50:08;18.10;1.00
19924;DHT22;10124;53.068;18.224;2023-05-07T07:52:36;17.90;1.00
19924;DHT22;10124;53.068;18.224;2023-05-07T07:55:05;17.90;1.00
19924;DHT22;10124;53.068;18.224;2023-05-07T07:57:35;18.10;1.00
19924;DHT22;10124;53.068;18.224;2023-05-07T08:00:05;18.30;1.00
19924;DHT22;10124;53.068;18.224;2023-05-07T08:02:42;17.90;1.00
19924;DHT22;10124;53.068;18.224;2023-05-07T08:05:17;18.70;1.00
19924;DHT22;10124;53.068;18.224;2023-05-07T08:07:47;19.10;1.00
19924;DHT22;10124;53.068;18.224;2023-05-07T08:10:24;19.10;1.00
19924;DHT22;10124;53.068;18.224;2023-05-07T08:12:58;19.20;1.00
19924;DHT22;10124;53.068;18.224;2023-05-07T08:15:26;19.20;1.00
19924;DHT22;10124;53.068;18.224;2023-05-07T08:17:54;19.50;1.00
19924;DHT22;10124;53.068;18.224;2023-05-07T08:20:24;18.80;1.00
19924;DHT22;10124;53.068;18.224;2023-05-07T08:22:52;19.00;1.00
19924;DHT22;10124;53.068;18.224;2023-05-07T08:25:20;19.50;1.00
19924;DHT22;10124;53.068;18.224;2023-05-07T08:27:48;19.10;1.00
19924;DHT22;10124;53.068;18.224;2023-05-07T08:30:16;19.80;1.00
19924;DHT22;10124;53.068;18.224;2023-05-07T08:32:44;20.10;1.00
19924;DHT22;10124;53.068;18.224;2023-05-07T08:35:12;19.90;1.00
19924;DHT22;10124;53.068;18.224;2023-05-07T08:37:39;19.70;1.00
19924;DHT22;10124;53.068;18.224;2023-05-07T08:40:08;19.30;1.00
19924;DHT22;10124;53.068;18.224;2023-05-07T08:42:40;18.60;1.00
19924;DHT22;10124;53.068;18.224;2023-05-07T08:45:10;18.40;1.00
19924;DHT22;10124;53.068;18.224;2023-05-07T08:47:47;18.40;1.00
19924;DHT22;10124;53.068;18.224;2023-05-07T08:50:20;18.50;1.00
19924;DHT22;10124;53.068;18.224;2023-05-07T08:52:48;18.50;1.00
19924;DHT22;10124;53.068;18.224;2023-05-07T08:55:17;18.70;1.00
19924;DHT22;10124;53.068;18.224;2023-05-07T08:57:44;19.40;1.00
19924;DHT22;10124;53.068;18.224;2023-05-07T09:00:13;19.80;1.00
19924;DHT22;10124;53.068;18.224;2023-05-07T09:02:42;20.40;1.00
19924;DHT22;10124;53.068;18.224;2023-05-07T09:05:10;21.30;1.00
19924;DHT22;10124;53.068;18.224;2023-05-07T09:07:38;21.30;1.00
19924;DHT22;10124;53.068;18.224;2023-05-07T09:10:07;20.90;1.00
19924;DHT22;10124;53.068;18.224;2023-05-07T09:12:37;21.00;1.00
19924;DHT22;10124;53.068;18.224;2023-05-07T09:15:08;21.70;1.00
19924;DHT22;10124;53.068;18.224;2023-05-07T09:17:36;22.00;1.00
19924;DHT22;10124;53.068;18.224;2023-05-07T09:20:05;22.30;1.00
19924;DHT22;10124;53.068;18.224;2023-05-07T09:25:10;22.10;1.00
19924;DHT22;10124;53.068;18.224;2023-05-07T09:27:41;22.10;1.00
19924;DHT22;10124;53.068;18.224;2023-05-07T09:30:09;22.10;1.00
19924;DHT22;10124;53.068;18.224;2023-05-07T09:32:37;22.00;1.00
19924;DHT22;10124;53.068;18.224;2023-05-07T09:35:16;20.40;1.00
19924;DHT22;10124;53.068;18.224;2023-05-07T09:37:47;20.70;1.00
19924;DHT22;10124;53.068;18.224;2023-05-07T09:40:23;20.00;1.00
19924;DHT22;10124;53.068;18.224;2023-05-07T09:42:52;19.90;1.00
19924;DHT22;10124;53.068;18.224;2023-05-07T09:45:26;20.60;1.00
19924;DHT22;10124;53.068;18.224;2023-05-07T09:47:55;21.50;1.00
19924;DHT22;10124;53.068;18.224;2023-05-07T09:50:29;21.50;1.00
19924;DHT22;10124;53.068;18.224;2023-05-07T09:53:00;22.30;1.00
19924;DHT22;10124;53.068;18.224;2023-05-07T09:55:29;22.90;1.00
19924;DHT22;10124;53.068;18.224;2023-05-07T09:57:57;23.40;1.00
19924;DHT22;10124;53.068;18.224;2023-05-07T10:00:28;23.50;1.00
19924;DHT22;10124;53.068;18.224;2023-05-07T10:03:06;22.80;1.00
19924;DHT22;10124;53.068;18.224;2023-05-07T10:05:47;23.00;1.00
19924;DHT22;10124;53.068;18.224;2023-05-07T10:08:16;23.00;1.00
19924;DHT22;10124;53.068;18.224;2023-05-07T10:10:49;23.50;1.00
19924;DHT22;10124;53.068;18.224;2023-05-07T10:15:55;23.70;1.00
19924;DHT22;10124;53.068;18.224;2023-05-07T10:18:25;23.80;1.00
19924;DHT22;10124;53.068;18.224;2023-05-07T10:21:19;23.10;1.00
19924;DHT22;10124;53.068;18.224;2023-05-07T10:23:59;23.00;1.00
19924;DHT22;10124;53.068;18.224;2023-05-07T10:26:33;23.60;1.00
19924;DHT22;10124;53.068;18.224;2023-05-07T10:29:12;24.00;1.00
19924;DHT22;10124;53.068;18.224;2023-05-07T10:31:58;23.30;1.00
19924;DHT22;10124;53.068;18.224;2023-05-07T10:34:36;23.70;1.00
19924;DHT22;10124;53.068;18.224;2023-05-07T10:37:08;23.30;1.00
19924;DHT22;10124;53.068;18.224;2023-05-07T10:39:37;23.40;1.00
19924;DHT22;10124;53.068;18.224;2023-05-07T10:42:12;23.50;1.00
19924;DHT22;10124;53.068;18.224;2023-05-07T10:44:44;23.10;1.00
19924;DHT22;10124;53.068;18.224;2023-05-07T10:47:18;23.10;1.00
19924;DHT22;10124;53.068;18.224;2023-05-07T10:52:24;24.20;1.00
19924;DHT22;10124;53.068;18.224;2023-05-07T10:57:55;24.00;1.00
19924;DHT22;10124;53.068;18.224;2023-05-07T11:03:08;22.60;1.00
19924;DHT22;10124;53.068;18.224;2023-05-07T11:05:42;21.80;1.00
19924;DHT22;10124;53.068;18.224;2023-05-07T11:08:24;22.30;1.00
19924;DHT22;10124;53.068;18.224;2023-05-07T11:11:04;22.80;1.00
19924;DHT22;10124;53.068;18.224;2023-05-07T11:13:53;22.50;1.00
19924;DHT22;10124;53.068;18.224;2023-05-07T11:19:50;23.70;1.00
19924;DHT22;10124;53.068;18.224;2023-05-07T11:25:18;23.80;1.00
19924;DHT22;10124;53.068;18.224;2023-05-07T11:28:09;22.80;1.00
19924;DHT22;10124;53.068;18.224;2023-05-07T11:33:17;22.80;1.00
19924;DHT22;10124;53.068;18.224;2023-05-07T11:35:45;22.80;1.00
19924;DHT22;10124;53.068;18.224;2023-05-07T11:40:51;21.40;1.00
19924;DHT22;10124;53.068;18.224;2023-05-07T11:48:16;21.80;1.00
19924;DHT22;10124;53.068;18.224;2023-05-07T11:53:24;22.50;1.00
19924;DHT22;10124;53.068;18.224;2023-05-07T11:58:23;23.40;1.00
19924;DHT22;10124;53.068;18.224;2023-05-07T12:10:48;23.00;1.00
19924;DHT22;10124;53.068;18.224;2023-05-07T12:13:18;22.90;1.00
19924;DHT22;10124;53.068;18.224;2023-05-07T12:15:50;22.50;1.00
19924;DHT22;10124;53.068;18.224;2023-05-07T12:28:18;20.30;1.00
19924;DHT22;10124;53.068;18.224;2023-05-07T12:30:48;21.20;1.00
19924;DHT22;10124;53.068;18.224;2023-05-07T12:33:23;22.60;1.00
19924;DHT22;10124;53.068;18.224;2023-05-07T12:35:55;22.90;1.00
19924;DHT22;10124;53.068;18.224;2023-05-07T12:40:54;20.90;1.00
19924;DHT22;10124;53.068;18.224;2023-05-07T12:43:25;19.70;1.00
19924;DHT22;10124;53.068;18.224;2023-05-07T12:45:56;19.20;1.00
19924;DHT22;10124;53.068;18.224;2023-05-07T12:50:56;20.70;1.00
19924;DHT22;10124;53.068;18.224;2023-05-07T12:53:25;21.10;1.00
19924;DHT22;10124;53.068;18.224;2023-05-07T12:55:56;22.30;1.00
19924;DHT22;10124;53.068;18.224;2023-05-07T12:58:44;22.30;52.70
19924;DHT22;10124;53.068;18.224;2023-05-07T13:03:48;23.00;1.00
19924;DHT22;10124;53.068;18.224;2023-05-07T13:08:46;23.70;1.00
19924;DHT22;10124;53.068;18.224;2023-05-07T13:16:11;22.70;1.00
19924;DHT22;10124;53.068;18.224;2023-05-07T13:18:40;22.80;1.00
19924;DHT22;10124;53.068;18.224;2023-05-07T13:28:55;23.30;1.00
19924;DHT22;10124;53.068;18.224;2023-05-07T14:01:00;21.10;7.90
19924;DHT22;10124;53.068;18.224;2023-05-07T14:08:27;21.20;1.00
19924;DHT22;10124;53.068;18.224;2023-05-07T14:28:18;19.20;99.90
19924;DHT22;10124;53.068;18.224;2023-05-07T14:30:46;18.20;1.00
19924;DHT22;10124;53.068;18.224;2023-05-07T14:48:06;19.30;99.90
19924;DHT22;10124;53.068;18.224;2023-05-07T15:02:59;18.20;1.00
19924;DHT22;10124;53.068;18.224;2023-05-07T15:22:49;17.00;1.00
19924;DHT22;10124;53.068;18.224;2023-05-07T15:27:44;16.00;1.00
19924;DHT22;10124;53.068;18.224;2023-05-07T15:30:12;15.80;1.00
19924;DHT22;10124;53.068;18.224;2023-05-07T15:37:38;16.50;1.00
19924;DHT22;10124;53.068;18.224;2023-05-07T15:40:06;16.10;1.00
19924;DHT22;10124;53.068;18.224;2023-05-07T15:47:33;16.70;1.00
19924;DHT22;10124;53.068;18.224;2023-05-07T15:50:02;15.90;1.00
19924;DHT22;10124;53.068;18.224;2023-05-07T15:52:30;16.00;1.00
19924;DHT22;10124;53.068;18.224;2023-05-07T15:57:26;15.70;1.00
19924;DHT22;10124;53.068;18.224;2023-05-07T15:59:53;15.60;1.00
19924;DHT22;10124;53.068;18.224;2023-05-07T16:02:21;15.80;1.00
19924;DHT22;10124;53.068;18.224;2023-05-07T16:07:17;15.50;99.90
19924;DHT22;10124;53.068;18.224;2023-05-07T16:09:46;15.40;1.00
19924;DHT22;10124;53.068;18.224;2023-05-07T16:12:14;15.60;1.00
19924;DHT22;10124;53.068;18.224;2023-05-07T16:14:41;15.50;1.00
19924;DHT22;10124;53.068;18.224;2023-05-07T16:19:38;15.40;1.00
19924;DHT22;10124;53.068;18.224;2023-05-07T16:22:06;15.20;1.00
19924;DHT22;10124;53.068;18.224;2023-05-07T16:27:05;15.30;1.00
19924;DHT22;10124;53.068;18.224;2023-05-07T16:32:01;15.50;1.00
19924;DHT22;10124;53.068;18.224;2023-05-07T16:34:28;15.10;1.00
19924;DHT22;10124;53.068;18.224;2023-05-07T16:36:58;15.30;1.00
19924;DHT22;10124;53.068;18.224;2023-05-07T16:39:25;15.30;1.00
19924;DHT22;10124;53.068;18.224;2023-05-07T16:41:53;15.20;1.00
19924;DHT22;10124;53.068;18.224;2023-05-07T16:44:20;15.10;1.00
19924;DHT22;10124;53.068;18.224;2023-05-07T16:46:48;15.30;1.00
19924;DHT22;10124;53.068;18.224;2023-05-07T16:54:12;14.80;1.00
19924;DHT22;10124;53.068;18.224;2023-05-07T16:56:39;15.00;1.00
19924;DHT22;10124;53.068;18.224;2023-05-07T16:59:08;14.90;1.00
19924;DHT22;10124;53.068;18.224;2023-05-07T17:06:33;14.80;1.00
19924;DHT22;10124;53.068;18.224;2023-05-07T17:09:00;14.50;1.00
19924;DHT22;10124;53.068;18.224;2023-05-07T17:16:26;14.50;1.00
19924;DHT22;10124;53.068;18.224;2023-05-07T17:21:22;14.60;99.90
19924;DHT22;10124;53.068;18.224;2023-05-07T17:26:18;14.30;1.00
19924;DHT22;10124;53.068;18.224;2023-05-07T17:28:46;14.20;1.00
19924;DHT22;10124;53.068;18.224;2023-05-07T17:31:14;13.50;1.00
19924;DHT22;10124;53.068;18.224;2023-05-07T17:33:42;13.20;1.00
19924;DHT22;10124;53.068;18.224;2023-05-07T17:36:10;14.30;99.90
19924;DHT22;10124;53.068;18.224;2023-05-07T17:38:38;14.10;1.00
19924;DHT22;10124;53.068;18.224;2023-05-07T17:41:05;13.00;1.00
19924;DHT22;10124;53.068;18.224;2023-05-07T17:43:34;13.90;99.90
19924;DHT22;10124;53.068;18.224;2023-05-07T17:46:01;13.30;99.90
19924;DHT22;10124;53.068;18.224;2023-05-07T17:48:30;13.00;99.90
19924;DHT22;10124;53.068;18.224;2023-05-07T17:51:01;13.00;1.00
19924;DHT22;10124;53.068;18.224;2023-05-07T17:53:30;13.50;1.00
19924;DHT22;10124;53.068;18.224;2023-05-07T17:55:58;11.80;99.90
19924;DHT22;10124;53.068;18.224;2023-05-07T18:00:54;11.80;1.00
19924;DHT22;10124;53.068;18.224;2023-05-07T18:03:22;12.90;1.00
19924;DHT22;10124;53.068;18.224;2023-05-07T18:08:30;11.80;1.00
19924;DHT22;10124;53.068;18.224;2023-05-07T18:21:30;10.80;1.00
19924;DHT22;10124;53.068;18.224;2023-05-07T18:36:22;10.10;1.00
19924;DHT22;10124;53.068;18.224;2023-05-07T18:38:51;10.20;1.00
19924;DHT22;10124;53.068;18.224;2023-05-07T18:46:18;9.90;1.00
19924;DHT22;10124;53.068;18.224;2023-05-07T18:58:40;9.40;31.80
19924;DHT22;10124;53.068;18.224;2023-05-07T19:03:38;9.40;1.00
19924;DHT22;10124;53.068;18.224;2023-05-07T19:06:06;9.30;1.00
19924;DHT22;10124;53.068;18.224;2023-05-07T19:11:02;8.90;1.00
19924;DHT22;10124;53.068;18.224;2023-05-07T19:13:30;8.90;1.00
19924;DHT22;10124;53.068;18.224;2023-05-07T19:15:57;8.80;1.00
19924;DHT22;10124;53.068;18.224;2023-05-07T19:18:26;8.80;9.00
19924;DHT22;10124;53.068;18.224;2023-05-07T19:20:54;8.70;1.00
19924;DHT22;10124;53.068;18.224;2023-05-07T19:23:21;8.20;29.00
19924;DHT22;10124;53.068;18.224;2023-05-07T19:25:50;8.80;61.80
19924;DHT22;10124;53.068;18.224;2023-05-07T19:35:44;7.60;3.20
19924;DHT22;10124;53.068;18.224;2023-05-07T19:40:39;8.40;28.40
19924;DHT22;10124;53.068;18.224;2023-05-07T19:45:35;7.30;39.90
19924;DHT22;10124;53.068;18.224;2023-05-07T19:48:04;8.70;74.10
19924;DHT22;10124;53.068;18.224;2023-05-07T20:15:15;7.10;67.40
19924;DHT22;10124;53.068;18.224;2023-05-07T20:17:43;6.80;70.40
19924;DHT22;10124;53.068;18.224;2023-05-07T20:27:35;6.90;1.00
19924;DHT22;10124;53.068;18.224;2023-05-07T20:30:09;7.00;21.20
19924;DHT22;10124;53.068;18.224;2023-05-07T20:32:37;6.90;3.10
19924;DHT22;10124;53.068;18.224;2023-05-07T20:35:05;6.80;1.00
19924;DHT22;10124;53.068;18.224;2023-05-07T20:37:33;6.90;27.40
19924;DHT22;10124;53.068;18.224;2023-05-07T20:47:31;6.90;1.00
19924;DHT22;10124;53.068;18.224;2023-05-07T20:49:59;8.30;1.00
19924;DHT22;10124;53.068;18.224;2023-05-07T20:52:27;6.90;1.00
19924;DHT22;10124;53.068;18.224;2023-05-07T20:54:54;6.80;1.00
19924;DHT22;10124;53.068;18.224;2023-05-07T20:57:23;6.80;1.00
19924;DHT22;10124;53.068;18.224;2023-05-07T20:59:50;6.60;1.00
19924;DHT22;10124;53.068;18.224;2023-05-07T21:02:18;6.60;8.50
19924;DHT22;10124;53.068;18.224;2023-05-07T21:04:45;6.60;13.00
19924;DHT22;10124;53.068;18.224;2023-05-07T21:07:13;8.10;20.70
19924;DHT22;10124;53.068;18.224;2023-05-07T21:09:40;6.50;12.40
19924;DHT22;10124;53.068;18.224;2023-05-07T21:12:08;8.40;16.30
19924;DHT22;10124;53.068;18.224;2023-05-07T21:14:35;6.40;12.60
19924;DHT22;10124;53.068;18.224;2023-05-07T21:17:05;6.30;6.40
19924;DHT22;10124;53.068;18.224;2023-05-07T21:22:01;6.10;25.60
19924;DHT22;10124;53.068;18.224;2023-05-07T21:24:28;6.10;56.70
19924;DHT22;10124;53.068;18.224;2023-05-07T21:26:56;6.10;50.10
19924;DHT22;10124;53.068;18.224;2023-05-07T21:31:53;5.90;41.30
19924;DHT22;10124;53.068;18.224;2023-05-07T21:34:21;5.90;92.10
19924;DHT22;10124;53.068;18.224;2023-05-07T21:36:48;6.00;99.90
19924;DHT22;10124;53.068;18.224;2023-05-07T21:41:43;5.60;70.20
19924;DHT22;10124;53.068;18.224;2023-05-07T21:44:10;5.50;85.20
19924;DHT22;10124;53.068;18.224;2023-05-07T22:26:11;4.70;99.90
19924;DHT22;10124;53.068;18.224;2023-05-07T22:45:58;4.70;99.90
19924;DHT22;10124;53.068;18.224;2023-05-07T22:50:55;4.40;99.90
